UAE8VC VABB-OMDB
Flight info
| Callsign | UAE8VC |
|---|---|
| Flight time | N/A |
| Altitude | 38000 |
| Route | RAXET2A SAKUN V2 SUGID N571 VUSET A454 PASOV B540 KUPMA/N0410F240 B540 MIVEK P574 IMPED |
| Aircraft | B77W/H-SDE1E2E3FGHIJ2J3J4J5M1RWXY/LB1D1 |
Departure
| Time | N/A |
|---|---|
| Airport | Chhatrapati Shivaji Maharaj International Airport (VABB) |
Arrival
| Time | 2026-04-30 20:04 |
|---|---|
| Airport | Dubai International Airport (OMDB) |
| Time | Latitude | Longitude | Altitude | Speed | Heading |
|---|---|---|---|---|---|
| 2026-04-30 17:39 | 19.09820 | 72.66634 | 10392 ft | 270 kts | 274° |
| 2026-04-30 17:41 | 19.11719 | 72.46951 | 14799 ft | 386 kts | 277° |
| 2026-04-30 17:42 | 19.12339 | 72.41232 | 16216 ft | 396 kts | 278° |
| 2026-04-30 17:42 | 19.13301 | 72.32366 | 18196 ft | 412 kts | 277° |
| 2026-04-30 17:43 | 19.13938 | 72.26299 | 19612 ft | 418 kts | 278° |
| 2026-04-30 17:44 | 19.14903 | 72.17066 | 21574 ft | 427 kts | 278° |
| 2026-04-30 17:44 | 19.17033 | 72.07918 | 23330 ft | 431 kts | 294° |
| 2026-04-30 17:46 | 19.23834 | 71.93479 | 25771 ft | 447 kts | 300° |
| 2026-04-30 17:47 | 19.29773 | 71.81678 | 27403 ft | 460 kts | 300° |
| 2026-04-30 17:48 | 19.35846 | 71.69609 | 28798 ft | 471 kts | 300° |
| 2026-04-30 17:48 | 19.40493 | 71.60337 | 29689 ft | 478 kts | 300° |
| 2026-04-30 17:49 | 19.46736 | 71.47863 | 31126 ft | 478 kts | 300° |
| 2026-04-30 17:50 | 19.52405 | 71.36501 | 32646 ft | 473 kts | 299° |
| 2026-04-30 17:51 | 19.57495 | 71.26252 | 33852 ft | 471 kts | 299° |
| 2026-04-30 17:52 | 19.61497 | 71.18036 | 34803 ft | 470 kts | 296° |
| 2026-04-30 17:53 | 19.67923 | 71.00936 | 36572 ft | 467 kts | 293° |
| 2026-04-30 17:54 | 19.72294 | 70.89238 | 37621 ft | 464 kts | 293° |
| 2026-04-30 17:55 | 19.77113 | 70.76529 | 37816 ft | 462 kts | 293° |
| 2026-04-30 17:56 | 19.81903 | 70.63856 | 37814 ft | 463 kts | 293° |
| 2026-04-30 17:58 | 19.89087 | 70.44757 | 37805 ft | 465 kts | 293° |
| 2026-04-30 18:00 | 19.98661 | 70.19187 | 37792 ft | 467 kts | 292° |
| 2026-04-30 18:01 | 20.04643 | 70.03143 | 37788 ft | 467 kts | 292° |
| 2026-04-30 18:02 | 20.11795 | 69.83895 | 37785 ft | 467 kts | 292° |
| 2026-04-30 18:04 | 20.18938 | 69.64599 | 37778 ft | 467 kts | 292° |
| 2026-04-30 18:06 | 20.28418 | 69.38870 | 37746 ft | 467 kts | 292° |
| 2026-04-30 18:08 | 20.36698 | 69.16290 | 37737 ft | 467 kts | 292° |
| 2026-04-30 18:10 | 20.46116 | 68.90481 | 37728 ft | 467 kts | 291° |
| 2026-04-30 18:11 | 20.54317 | 68.67892 | 37752 ft | 466 kts | 291° |
| 2026-04-30 18:13 | 20.60133 | 68.51809 | 37768 ft | 465 kts | 291° |
| 2026-04-30 18:14 | 20.65949 | 68.35675 | 37787 ft | 466 kts | 291° |
| 2026-04-30 18:15 | 20.72900 | 68.16321 | 37814 ft | 466 kts | 291° |
| 2026-04-30 18:16 | 20.77526 | 68.03394 | 37827 ft | 466 kts | 291° |
| 2026-04-30 18:17 | 20.79836 | 67.96927 | 37831 ft | 466 kts | 291° |
| 2026-04-30 18:18 | 20.83302 | 67.87206 | 37833 ft | 466 kts | 291° |
| 2026-04-30 18:18 | 20.85606 | 67.80735 | 37833 ft | 466 kts | 291° |
| 2026-04-30 18:19 | 20.87907 | 67.74261 | 37835 ft | 466 kts | 291° |
| 2026-04-30 18:19 | 20.90206 | 67.67787 | 37835 ft | 466 kts | 291° |
| 2026-04-30 18:20 | 20.92488 | 67.61349 | 37833 ft | 466 kts | 291° |
| 2026-04-30 18:20 | 20.94785 | 67.54862 | 37831 ft | 466 kts | 291° |
| 2026-04-30 18:21 | 20.97079 | 67.48374 | 37834 ft | 465 kts | 290° |
| 2026-04-30 18:21 | 20.99363 | 67.41906 | 37836 ft | 464 kts | 290° |
| 2026-04-30 18:22 | 21.01622 | 67.35498 | 37846 ft | 462 kts | 290° |
| 2026-04-30 18:22 | 21.05025 | 67.25828 | 37846 ft | 462 kts | 290° |
| 2026-04-30 18:23 | 21.07287 | 67.19393 | 37846 ft | 462 kts | 290° |
| 2026-04-30 18:23 | 21.09544 | 67.12959 | 37846 ft | 462 kts | 290° |
| 2026-04-30 18:24 | 21.12932 | 67.03287 | 37846 ft | 462 kts | 290° |
| 2026-04-30 18:25 | 21.15171 | 66.96885 | 37846 ft | 462 kts | 289° |
| 2026-04-30 18:25 | 21.18555 | 66.87192 | 37846 ft | 462 kts | 289° |
| 2026-04-30 18:26 | 21.21930 | 66.77502 | 37846 ft | 463 kts | 289° |
| 2026-04-30 18:27 | 21.25286 | 66.67847 | 37847 ft | 463 kts | 289° |
| 2026-04-30 18:28 | 21.28658 | 66.58125 | 37846 ft | 463 kts | 289° |
| 2026-04-30 18:28 | 21.32020 | 66.48415 | 37846 ft | 463 kts | 289° |
| 2026-04-30 18:29 | 21.36479 | 66.35501 | 37846 ft | 463 kts | 289° |
| 2026-04-30 18:30 | 21.40944 | 66.22533 | 37846 ft | 463 kts | 289° |
| 2026-04-30 18:31 | 21.44281 | 66.12818 | 37846 ft | 462 kts | 289° |
| 2026-04-30 18:32 | 21.47600 | 66.03135 | 37846 ft | 462 kts | 289° |
| 2026-04-30 18:33 | 21.50927 | 65.93406 | 37846 ft | 462 kts | 289° |
| 2026-04-30 18:33 | 21.54247 | 65.83677 | 37847 ft | 462 kts | 289° |
| 2026-04-30 18:34 | 21.57546 | 65.73990 | 37846 ft | 462 kts | 289° |
| 2026-04-30 18:35 | 21.59751 | 65.67504 | 37847 ft | 462 kts | 289° |
| 2026-04-30 18:35 | 21.61954 | 65.61013 | 37846 ft | 462 kts | 288° |
| 2026-04-30 18:36 | 21.65251 | 65.51283 | 37846 ft | 462 kts | 288° |
| 2026-04-30 18:37 | 21.68528 | 65.41589 | 37846 ft | 462 kts | 288° |
| 2026-04-30 18:37 | 21.70723 | 65.35084 | 37846 ft | 463 kts | 288° |
| 2026-04-30 18:38 | 21.72545 | 65.29678 | 37846 ft | 463 kts | 288° |
| 2026-04-30 18:38 | 21.74736 | 65.23168 | 37847 ft | 463 kts | 288° |
| 2026-04-30 18:39 | 21.77295 | 65.15553 | 37846 ft | 463 kts | 288° |
| 2026-04-30 18:39 | 21.79481 | 65.09039 | 37846 ft | 463 kts | 288° |
| 2026-04-30 18:40 | 21.81648 | 65.02569 | 37846 ft | 463 kts | 288° |
| 2026-04-30 18:40 | 21.83473 | 64.97114 | 37847 ft | 463 kts | 288° |
| 2026-04-30 18:41 | 21.86011 | 64.89518 | 37846 ft | 464 kts | 288° |
| 2026-04-30 18:41 | 21.88194 | 64.82971 | 37846 ft | 464 kts | 288° |
| 2026-04-30 18:42 | 21.90006 | 64.77532 | 37846 ft | 464 kts | 288° |
| 2026-04-30 18:42 | 21.93269 | 64.67717 | 37846 ft | 464 kts | 288° |
| 2026-04-30 18:45 | 22.05221 | 64.31581 | 37846 ft | 467 kts | 288° |
| 2026-04-30 18:46 | 22.07397 | 64.24969 | 37846 ft | 467 kts | 288° |
| 2026-04-30 18:46 | 22.09554 | 64.18404 | 37846 ft | 467 kts | 288° |
| 2026-04-30 18:47 | 22.11722 | 64.11796 | 37846 ft | 467 kts | 288° |
| 2026-04-30 18:47 | 22.13892 | 64.05172 | 37847 ft | 467 kts | 287° |
| 2026-04-30 18:48 | 22.16055 | 63.98560 | 37846 ft | 468 kts | 287° |
| 2026-04-30 18:48 | 22.18220 | 63.91930 | 37846 ft | 468 kts | 287° |
| 2026-04-30 18:49 | 22.20378 | 63.85313 | 37846 ft | 468 kts | 287° |
| 2026-04-30 18:49 | 22.22534 | 63.78691 | 37846 ft | 468 kts | 287° |
| 2026-04-30 18:50 | 22.24672 | 63.72113 | 37846 ft | 468 kts | 287° |
| 2026-04-30 18:50 | 22.26823 | 63.65486 | 37846 ft | 468 kts | 287° |
| 2026-04-30 18:51 | 22.28971 | 63.58860 | 37846 ft | 468 kts | 287° |
| 2026-04-30 18:51 | 22.31120 | 63.52218 | 37846 ft | 469 kts | 287° |
| 2026-04-30 18:52 | 22.33273 | 63.45551 | 37847 ft | 470 kts | 287° |
| 2026-04-30 18:52 | 22.35442 | 63.38888 | 37846 ft | 470 kts | 287° |
| 2026-04-30 18:53 | 22.37586 | 63.32223 | 37846 ft | 469 kts | 287° |
| 2026-04-30 18:53 | 22.39722 | 63.25559 | 37846 ft | 469 kts | 287° |
| 2026-04-30 18:54 | 22.41842 | 63.18934 | 37847 ft | 469 kts | 287° |
| 2026-04-30 18:54 | 22.43977 | 63.12263 | 37846 ft | 469 kts | 287° |
| 2026-04-30 18:55 | 22.46334 | 63.05672 | 37846 ft | 470 kts | 291° |
| 2026-04-30 18:55 | 22.50249 | 62.95941 | 37847 ft | 471 kts | 291° |
| 2026-04-30 18:56 | 22.54076 | 62.86199 | 37846 ft | 467 kts | 290° |
| 2026-04-30 18:57 | 22.57835 | 62.76529 | 37846 ft | 467 kts | 290° |
| 2026-04-30 18:57 | 22.60376 | 62.70054 | 37846 ft | 467 kts | 290° |
| 2026-04-30 18:58 | 22.64163 | 62.60323 | 37846 ft | 467 kts | 290° |
| 2026-04-30 18:59 | 22.67929 | 62.50599 | 37846 ft | 467 kts | 290° |
| 2026-04-30 19:00 | 22.72938 | 62.37622 | 37846 ft | 467 kts | 290° |
| 2026-04-30 19:01 | 22.77918 | 62.24682 | 37846 ft | 466 kts | 290° |
| 2026-04-30 19:02 | 22.81656 | 62.14948 | 37846 ft | 466 kts | 290° |
| 2026-04-30 19:03 | 22.86627 | 62.01967 | 37847 ft | 466 kts | 289° |
| 2026-04-30 19:04 | 22.91590 | 61.88971 | 37846 ft | 466 kts | 289° |
| 2026-04-30 19:05 | 22.96542 | 61.75968 | 37846 ft | 466 kts | 289° |
| 2026-04-30 19:06 | 23.01471 | 61.62987 | 37846 ft | 466 kts | 289° |
| 2026-04-30 19:06 | 23.05162 | 61.53241 | 37846 ft | 464 kts | 289° |
| 2026-04-30 19:07 | 23.08842 | 61.43502 | 37846 ft | 465 kts | 289° |
| 2026-04-30 19:08 | 23.13753 | 61.30474 | 37846 ft | 466 kts | 289° |
| 2026-04-30 19:09 | 23.17428 | 61.20700 | 37846 ft | 466 kts | 289° |
| 2026-04-30 19:09 | 23.19875 | 61.14180 | 37846 ft | 466 kts | 289° |
| 2026-04-30 19:10 | 23.24762 | 61.01130 | 37846 ft | 466 kts | 289° |
| 2026-04-30 19:11 | 23.28425 | 60.91378 | 37847 ft | 466 kts | 289° |
| 2026-04-30 19:12 | 23.30865 | 60.84829 | 37846 ft | 466 kts | 289° |
| 2026-04-30 19:12 | 23.33293 | 60.78287 | 37846 ft | 466 kts | 289° |
| 2026-04-30 19:13 | 23.38143 | 60.65204 | 37846 ft | 465 kts | 289° |
| 2026-04-30 19:14 | 23.40528 | 60.58703 | 37847 ft | 465 kts | 288° |
| 2026-04-30 19:14 | 23.42919 | 60.52150 | 37846 ft | 465 kts | 288° |
| 2026-04-30 19:15 | 23.45302 | 60.45604 | 37846 ft | 465 kts | 288° |
| 2026-04-30 19:15 | 23.48874 | 60.35775 | 37846 ft | 465 kts | 288° |
| 2026-04-30 19:16 | 23.51248 | 60.29235 | 37846 ft | 463 kts | 288° |
| 2026-04-30 19:17 | 23.54829 | 60.19468 | 37846 ft | 462 kts | 288° |
| 2026-04-30 19:17 | 23.58380 | 60.09698 | 37846 ft | 462 kts | 288° |
| 2026-04-30 19:18 | 23.61907 | 59.99953 | 37847 ft | 462 kts | 288° |
| 2026-04-30 19:19 | 23.64257 | 59.93445 | 37843 ft | 460 kts | 288° |
| 2026-04-30 19:19 | 23.67766 | 59.83710 | 37836 ft | 459 kts | 288° |
| 2026-04-30 19:20 | 23.70105 | 59.77210 | 37832 ft | 460 kts | 288° |
| 2026-04-30 19:21 | 23.73609 | 59.67452 | 37825 ft | 460 kts | 288° |
| 2026-04-30 19:22 | 23.78281 | 59.54408 | 37789 ft | 464 kts | 288° |
| 2026-04-30 19:23 | 23.85324 | 59.34718 | 37787 ft | 464 kts | 287° |
| 2026-04-30 19:24 | 23.88815 | 59.24865 | 37787 ft | 463 kts | 287° |
| 2026-04-30 19:25 | 23.94523 | 59.08456 | 37787 ft | 462 kts | 285° |
| 2026-04-30 19:26 | 23.98706 | 58.95197 | 37787 ft | 461 kts | 285° |
| 2026-04-30 19:27 | 24.01507 | 58.86373 | 37787 ft | 461 kts | 285° |
| 2026-04-30 19:28 | 24.04666 | 58.76446 | 37787 ft | 461 kts | 285° |
| 2026-04-30 19:29 | 24.08931 | 58.63157 | 37787 ft | 462 kts | 285° |
| 2026-04-30 19:30 | 24.13135 | 58.49923 | 37787 ft | 462 kts | 285° |
| 2026-04-30 19:31 | 24.17337 | 58.36637 | 37787 ft | 461 kts | 285° |
| 2026-04-30 19:31 | 24.20476 | 58.26683 | 37787 ft | 461 kts | 285° |
| 2026-04-30 19:32 | 24.22565 | 58.20042 | 37787 ft | 461 kts | 285° |
| 2026-04-30 19:32 | 24.24648 | 58.13413 | 37802 ft | 460 kts | 285° |
| 2026-04-30 19:33 | 24.26726 | 58.06784 | 37804 ft | 459 kts | 284° |
| 2026-04-30 19:33 | 24.28786 | 58.00204 | 37805 ft | 459 kts | 284° |
| 2026-04-30 19:34 | 24.30828 | 57.93670 | 37804 ft | 442 kts | 284° |
| 2026-04-30 19:34 | 24.32791 | 57.87375 | 37208 ft | 436 kts | 284° |
| 2026-04-30 19:35 | 24.33790 | 57.84167 | 36354 ft | 453 kts | 285° |
| 2026-04-30 19:35 | 24.34822 | 57.80856 | 35810 ft | 460 kts | 285° |
| 2026-04-30 19:35 | 24.35844 | 57.77567 | 35463 ft | 452 kts | 285° |
| 2026-04-30 19:35 | 24.36859 | 57.74304 | 34971 ft | 450 kts | 285° |
| 2026-04-30 19:36 | 24.37863 | 57.71069 | 34504 ft | 447 kts | 285° |
| 2026-04-30 19:36 | 24.38861 | 57.67852 | 34049 ft | 444 kts | 285° |
| 2026-04-30 19:36 | 24.40836 | 57.61478 | 33169 ft | 438 kts | 285° |
| 2026-04-30 19:37 | 24.41812 | 57.58328 | 32748 ft | 434 kts | 285° |
| 2026-04-30 19:37 | 24.42778 | 57.55204 | 32339 ft | 430 kts | 285° |
| 2026-04-30 19:37 | 24.43734 | 57.52108 | 31933 ft | 427 kts | 285° |
| 2026-04-30 19:37 | 24.44683 | 57.49035 | 31526 ft | 423 kts | 285° |
| 2026-04-30 19:38 | 24.45611 | 57.46027 | 31125 ft | 419 kts | 285° |
| 2026-04-30 19:38 | 24.46541 | 57.43009 | 30720 ft | 416 kts | 285° |
| 2026-04-30 19:38 | 24.47465 | 57.40010 | 30319 ft | 412 kts | 285° |
| 2026-04-30 19:38 | 24.48379 | 57.37041 | 29918 ft | 409 kts | 285° |
| 2026-04-30 19:39 | 24.49284 | 57.34098 | 29507 ft | 406 kts | 285° |
| 2026-04-30 19:39 | 24.50183 | 57.31172 | 29076 ft | 403 kts | 285° |
| 2026-04-30 19:39 | 24.51075 | 57.28266 | 28638 ft | 401 kts | 285° |
| 2026-04-30 19:39 | 24.51964 | 57.25371 | 28200 ft | 398 kts | 285° |
| 2026-04-30 19:40 | 24.52844 | 57.22499 | 27769 ft | 396 kts | 285° |
| 2026-04-30 19:40 | 24.53719 | 57.19644 | 27336 ft | 393 kts | 285° |
| 2026-04-30 19:40 | 24.54592 | 57.16812 | 26922 ft | 390 kts | 285° |
| 2026-04-30 19:40 | 24.55464 | 57.13999 | 26508 ft | 387 kts | 285° |
| 2026-04-30 19:41 | 24.56321 | 57.11208 | 26109 ft | 384 kts | 285° |
| 2026-04-30 19:41 | 24.57168 | 57.08436 | 25697 ft | 381 kts | 284° |
| 2026-04-30 19:41 | 24.58004 | 57.05687 | 25288 ft | 378 kts | 284° |
| 2026-04-30 19:41 | 24.58824 | 57.02990 | 24884 ft | 376 kts | 284° |
| 2026-04-30 19:42 | 24.59647 | 57.00280 | 24491 ft | 373 kts | 284° |
| 2026-04-30 19:42 | 24.60465 | 56.97582 | 24087 ft | 370 kts | 284° |
| 2026-04-30 19:42 | 24.61276 | 56.94907 | 23683 ft | 368 kts | 284° |
| 2026-04-30 19:42 | 24.62081 | 56.92250 | 23281 ft | 365 kts | 284° |
| 2026-04-30 19:43 | 24.62882 | 56.89609 | 22877 ft | 363 kts | 284° |
| 2026-04-30 19:43 | 24.63676 | 56.86991 | 22477 ft | 361 kts | 284° |
| 2026-04-30 19:43 | 24.64468 | 56.84383 | 22071 ft | 359 kts | 284° |
| 2026-04-30 19:44 | 24.66269 | 56.79276 | 21259 ft | 357 kts | 288° |
| 2026-04-30 19:44 | 24.67250 | 56.76778 | 20847 ft | 356 kts | 289° |
| 2026-04-30 19:44 | 24.68229 | 56.74322 | 20440 ft | 354 kts | 289° |
| 2026-04-30 19:44 | 24.69205 | 56.71844 | 20028 ft | 353 kts | 289° |
| 2026-04-30 19:45 | 24.70169 | 56.69367 | 19616 ft | 351 kts | 289° |
| 2026-04-30 19:45 | 24.71123 | 56.66897 | 19203 ft | 350 kts | 289° |
| 2026-04-30 19:45 | 24.72069 | 56.64436 | 18790 ft | 349 kts | 289° |
| 2026-04-30 19:45 | 24.73011 | 56.61977 | 18379 ft | 348 kts | 289° |
| 2026-04-30 19:46 | 24.73947 | 56.59523 | 17964 ft | 347 kts | 289° |
| 2026-04-30 19:46 | 24.74879 | 56.57078 | 17554 ft | 346 kts | 289° |
| 2026-04-30 19:46 | 24.75807 | 56.54639 | 17145 ft | 345 kts | 289° |
| 2026-04-30 19:46 | 24.76731 | 56.52208 | 16741 ft | 343 kts | 290° |
| 2026-04-30 19:47 | 24.77651 | 56.49789 | 16334 ft | 342 kts | 290° |
| 2026-04-30 19:47 | 24.78265 | 56.48191 | 16065 ft | 341 kts | 290° |
| 2026-04-30 19:47 | 24.79502 | 56.44980 | 15525 ft | 340 kts | 290° |
| 2026-04-30 19:47 | 24.80418 | 56.42591 | 15121 ft | 338 kts | 290° |
| 2026-04-30 19:48 | 24.81329 | 56.40208 | 14716 ft | 337 kts | 290° |
| 2026-04-30 19:48 | 24.82222 | 56.37863 | 14323 ft | 336 kts | 290° |
| 2026-04-30 19:48 | 24.83123 | 56.35495 | 13928 ft | 334 kts | 290° |
| 2026-04-30 19:48 | 24.84020 | 56.33136 | 13524 ft | 333 kts | 290° |
| 2026-04-30 19:49 | 24.84910 | 56.30790 | 13117 ft | 332 kts | 290° |
| 2026-04-30 19:49 | 24.86684 | 56.26111 | 12308 ft | 330 kts | 290° |
| 2026-04-30 19:49 | 24.87563 | 56.23789 | 11921 ft | 328 kts | 290° |
| 2026-04-30 19:50 | 24.88439 | 56.21476 | 11541 ft | 326 kts | 290° |
| 2026-04-30 19:50 | 24.89311 | 56.19168 | 11164 ft | 324 kts | 290° |
| 2026-04-30 19:50 | 24.90179 | 56.16872 | 10775 ft | 323 kts | 291° |
| 2026-04-30 19:50 | 24.91040 | 56.14593 | 10388 ft | 322 kts | 291° |
| 2026-04-30 19:51 | 24.91895 | 56.12327 | 10123 ft | 316 kts | 291° |
| 2026-04-30 19:51 | 24.92724 | 56.10132 | 10058 ft | 305 kts | 290° |
| 2026-04-30 19:51 | 24.93521 | 56.08019 | 10039 ft | 292 kts | 290° |
| 2026-04-30 19:51 | 24.94282 | 56.05998 | 10035 ft | 280 kts | 290° |
| 2026-04-30 19:52 | 24.95015 | 56.04055 | 9950 ft | 271 kts | 290° |
| 2026-04-30 19:52 | 24.95726 | 56.02166 | 9647 ft | 271 kts | 290° |
| 2026-04-30 19:52 | 24.96446 | 56.00253 | 9339 ft | 270 kts | 291° |
| 2026-04-30 19:52 | 24.97165 | 55.98342 | 9038 ft | 270 kts | 291° |
| 2026-04-30 19:53 | 24.97885 | 55.96433 | 8742 ft | 269 kts | 291° |
| 2026-04-30 19:53 | 24.98609 | 55.94533 | 8450 ft | 268 kts | 291° |
| 2026-04-30 19:53 | 24.99329 | 55.92634 | 8158 ft | 268 kts | 291° |
| 2026-04-30 19:53 | 25.00043 | 55.90740 | 7868 ft | 267 kts | 291° |
| 2026-04-30 19:54 | 25.00754 | 55.88849 | 7578 ft | 266 kts | 292° |
| 2026-04-30 19:54 | 25.01460 | 55.86966 | 7289 ft | 266 kts | 292° |
| 2026-04-30 19:54 | 25.02166 | 55.85079 | 6999 ft | 265 kts | 292° |
| 2026-04-30 19:54 | 25.02870 | 55.83197 | 6710 ft | 265 kts | 292° |
| 2026-04-30 19:55 | 25.03572 | 55.81316 | 6420 ft | 265 kts | 292° |
| 2026-04-30 19:55 | 25.04274 | 55.79437 | 6130 ft | 264 kts | 292° |
| 2026-04-30 19:55 | 25.04964 | 55.77587 | 5844 ft | 264 kts | 292° |
| 2026-04-30 19:55 | 25.05664 | 55.75710 | 5529 ft | 265 kts | 292° |
| 2026-04-30 19:56 | 25.06367 | 55.73824 | 5221 ft | 266 kts | 292° |
| 2026-04-30 19:56 | 25.07071 | 55.71937 | 4951 ft | 264 kts | 292° |
| 2026-04-30 19:56 | 25.07756 | 55.70099 | 4869 ft | 254 kts | 292° |
| 2026-04-30 19:56 | 25.08416 | 55.68328 | 4792 ft | 244 kts | 292° |
| 2026-04-30 19:57 | 25.09050 | 55.66630 | 4718 ft | 235 kts | 292° |
| 2026-04-30 19:57 | 25.09660 | 55.65001 | 4652 ft | 224 kts | 293° |
| 2026-04-30 19:57 | 25.10323 | 55.63491 | 4595 ft | 213 kts | 297° |
| 2026-04-30 19:57 | 25.11038 | 55.62100 | 4446 ft | 205 kts | 300° |
| 2026-04-30 19:58 | 25.11771 | 55.60771 | 4203 ft | 202 kts | 301° |
| 2026-04-30 19:58 | 25.12506 | 55.59451 | 3899 ft | 201 kts | 301° |
| 2026-04-30 19:58 | 25.13232 | 55.58146 | 3667 ft | 198 kts | 301° |
| 2026-04-30 19:58 | 25.13931 | 55.56889 | 3466 ft | 191 kts | 301° |
| 2026-04-30 19:59 | 25.14621 | 55.55648 | 3272 ft | 189 kts | 302° |
| 2026-04-30 19:59 | 25.15305 | 55.54417 | 3051 ft | 188 kts | 302° |
| 2026-04-30 19:59 | 25.16620 | 55.52048 | 2629 ft | 171 kts | 302° |
| 2026-04-30 20:00 | 25.17234 | 55.50943 | 2399 ft | 166 kts | 302° |
| 2026-04-30 20:00 | 25.17824 | 55.49880 | 2180 ft | 155 kts | 302° |
| 2026-04-30 20:00 | 25.18372 | 55.48894 | 1993 ft | 147 kts | 302° |
| 2026-04-30 20:00 | 25.18901 | 55.47941 | 1792 ft | 144 kts | 301° |
| 2026-04-30 20:01 | 25.19938 | 55.46076 | 1348 ft | 141 kts | 301° |
| 2026-04-30 20:01 | 25.20459 | 55.45159 | 1169 ft | 141 kts | 300° |
| 2026-04-30 20:01 | 25.20967 | 55.44239 | 949 ft | 142 kts | 299° |
| 2026-04-30 20:02 | 25.21995 | 55.42364 | 606 ft | 143 kts | 300° |
| 2026-04-30 20:02 | 25.22520 | 55.41421 | 480 ft | 145 kts | 299° |
| 2026-04-30 20:03 | 25.23575 | 55.39519 | 116 ft | 143 kts | 300° |
| 2026-04-30 20:03 | 25.24075 | 55.38635 | 50 ft | 123 kts | 298° |
| 2026-04-30 20:03 | 25.24438 | 55.37968 | 48 ft | 79 kts | 302° |
| 2026-04-30 20:03 | 25.24667 | 55.37552 | 48 ft | 50 kts | 302° |
| 2026-04-30 20:04 | 25.24782 | 55.37273 | 48 ft | 32 kts | 276° |
| 2026-04-30 20:04 | 25.24788 | 55.37077 | 48 ft | 22 kts | 271° |
| 2026-04-30 20:04 | 25.24792 | 55.36990 | 48 ft | 0 kts | 283° |
| 2026-04-30 20:07 | 25.24817 | 55.36914 | 48 ft | 16 kts | 294° |
| 2026-04-30 20:08 | 25.24862 | 55.36807 | 48 ft | 15 kts | 277° |
| 2026-04-30 20:08 | 25.24878 | 55.36697 | 48 ft | 14 kts | 291° |
| 2026-04-30 20:08 | 25.24922 | 55.36609 | 48 ft | 11 kts | 301° |
| 2026-04-30 20:08 | 25.24960 | 55.36540 | 48 ft | 10 kts | 301° |
| 2026-04-30 20:09 | 25.24996 | 55.36475 | 48 ft | 10 kts | 301° |
| 2026-04-30 20:09 | 25.25029 | 55.36414 | 48 ft | 9 kts | 301° |
| 2026-04-30 20:09 | 25.25063 | 55.36326 | 48 ft | 5 kts | 251° |
| 2026-04-30 20:10 | 25.25007 | 55.36278 | 48 ft | 10 kts | 211° |
| 2026-04-30 20:10 | 25.24935 | 55.36229 | 48 ft | 5 kts | 211° |
| 2026-04-30 20:10 | 25.24927 | 55.36224 | 48 ft | 0 kts | 211° |